sensor_id;sensor_type;location;lat;lon;timestamp;temperature;humidity
73133;DHT22;61320;52.008;4.530;2023-03-20T00:03:46;9.79;76.82
73133;DHT22;61320;52.008;4.530;2023-03-20T00:06:23;9.79;76.42
73133;DHT22;61320;52.008;4.530;2023-03-20T00:08:51;9.76;76.40
73133;DHT22;61320;52.008;4.530;2023-03-20T00:11:27;9.68;76.84
73133;DHT22;61320;52.008;4.530;2023-03-20T00:13:56;9.67;76.83
73133;DHT22;61320;52.008;4.530;2023-03-20T00:16:26;9.58;76.66
73133;DHT22;61320;52.008;4.530;2023-03-20T00:18:53;9.58;76.38
73133;DHT22;61320;52.008;4.530;2023-03-20T00:21:21;9.45;76.53
73133;DHT22;61320;52.008;4.530;2023-03-20T00:23:46;9.41;76.38
73133;DHT22;61320;52.008;4.530;2023-03-20T00:26:17;9.38;76.67
73133;DHT22;61320;52.008;4.530;2023-03-20T00:28:46;9.38;76.41
73133;DHT22;61320;52.008;4.530;2023-03-20T00:31:31;9.30;76.66
73133;DHT22;61320;52.008;4.530;2023-03-20T00:34:00;9.31;76.47
73133;DHT22;61320;52.008;4.530;2023-03-20T00:36:26;9.27;76.70
73133;DHT22;61320;52.008;4.530;2023-03-20T00:38:52;9.26;75.93
73133;DHT22;61320;52.008;4.530;2023-03-20T00:41:28;9.26;76.39
73133;DHT22;61320;52.008;4.530;2023-03-20T00:44:03;9.30;76.22
73133;DHT22;61320;52.008;4.530;2023-03-20T00:46:35;9.34;76.22
73133;DHT22;61320;52.008;4.530;2023-03-20T00:49:02;9.42;75.96
73133;DHT22;61320;52.008;4.530;2023-03-20T00:51:28;9.44;75.65
73133;DHT22;61320;52.008;4.530;2023-03-20T00:53:53;9.41;75.85
73133;DHT22;61320;52.008;4.530;2023-03-20T00:56:33;9.39;76.20
73133;DHT22;61320;52.008;4.530;2023-03-20T01:01:34;9.47;76.31
73133;DHT22;61320;52.008;4.530;2023-03-20T01:03:59;9.41;75.76
73133;DHT22;61320;52.008;4.530;2023-03-20T01:06:25;9.41;76.31
73133;DHT22;61320;52.008;4.530;2023-03-20T01:08:50;9.45;76.01
73133;DHT22;61320;52.008;4.530;2023-03-20T01:11:21;9.48;75.47
73133;DHT22;61320;52.008;4.530;2023-03-20T01:13:47;9.44;75.75
73133;DHT22;61320;52.008;4.530;2023-03-20T01:16:22;9.38;76.42
73133;DHT22;61320;52.008;4.530;2023-03-20T01:18:48;9.38;76.03
73133;DHT22;61320;52.008;4.530;2023-03-20T01:21:14;9.44;75.87
73133;DHT22;61320;52.008;4.530;2023-03-20T01:23:40;9.45;76.04
73133;DHT22;61320;52.008;4.530;2023-03-20T01:26:33;9.38;75.76
73133;DHT22;61320;52.008;4.530;2023-03-20T01:29:00;9.45;75.39
73133;DHT22;61320;52.008;4.530;2023-03-20T01:31:25;9.31;75.75
73133;DHT22;61320;52.008;4.530;2023-03-20T01:33:51;9.23;76.19
73133;DHT22;61320;52.008;4.530;2023-03-20T01:36:20;9.21;76.20
73133;DHT22;61320;52.008;4.530;2023-03-20T01:38:54;9.23;76.13
73133;DHT22;61320;52.008;4.530;2023-03-20T01:41:24;9.30;75.97
73133;DHT22;61320;52.008;4.530;2023-03-20T01:43:50;9.21;75.81
73133;DHT22;61320;52.008;4.530;2023-03-20T01:51:20;9.37;75.49
73133;DHT22;61320;52.008;4.530;2023-03-20T01:59:19;9.31;76.10
73133;DHT22;61320;52.008;4.530;2023-03-20T02:01:45;9.27;76.22
73133;DHT22;61320;52.008;4.530;2023-03-20T02:04:13;9.28;75.90
73133;DHT22;61320;52.008;4.530;2023-03-20T02:06:41;9.30;75.97
73133;DHT22;61320;52.008;4.530;2023-03-20T02:09:07;9.30;75.84
73133;DHT22;61320;52.008;4.530;2023-03-20T02:11:33;9.31;75.73
73133;DHT22;61320;52.008;4.530;2023-03-20T02:14:01;9.28;74.85
73133;DHT22;61320;52.008;4.530;2023-03-20T02:16:27;9.28;74.94
73133;DHT22;61320;52.008;4.530;2023-03-20T02:18:55;9.21;76.11
73133;DHT22;61320;52.008;4.530;2023-03-20T02:32:59;9.23;76.14
73133;DHT22;61320;52.008;4.530;2023-03-20T02:57:40;8.79;76.01
73133;DHT22;61320;52.008;4.530;2023-03-20T03:00:27;8.79;76.02
73133;DHT22;61320;52.008;4.530;2023-03-20T03:03:09;8.77;76.59
73133;DHT22;61320;52.008;4.530;2023-03-20T03:05:57;8.84;76.41
73133;DHT22;61320;52.008;4.530;2023-03-20T03:08:29;8.87;76.20
73133;DHT22;61320;52.008;4.530;2023-03-20T03:11:04;8.90;75.94
73133;DHT22;61320;52.008;4.530;2023-03-20T03:13:34;8.89;76.13
73133;DHT22;61320;52.008;4.530;2023-03-20T03:16:07;8.89;76.07
73133;DHT22;61320;52.008;4.530;2023-03-20T03:18:37;8.91;76.10
73133;DHT22;61320;52.008;4.530;2023-03-20T03:21:06;8.91;75.92
73133;DHT22;61320;52.008;4.530;2023-03-20T03:23:42;8.84;76.02
73133;DHT22;61320;52.008;4.530;2023-03-20T03:26:17;8.86;76.01
73133;DHT22;61320;52.008;4.530;2023-03-20T03:28:49;8.91;76.08
73133;DHT22;61320;52.008;4.530;2023-03-20T03:31:18;8.90;76.11
73133;DHT22;61320;52.008;4.530;2023-03-20T03:33:48;8.79;76.07
73133;DHT22;61320;52.008;4.530;2023-03-20T03:37:01;8.84;76.12
73133;DHT22;61320;52.008;4.530;2023-03-20T03:39:41;8.86;75.92
73133;DHT22;61320;52.008;4.530;2023-03-20T03:42:32;8.93;75.56
73133;DHT22;61320;52.008;4.530;2023-03-20T03:50:25;8.94;76.34
73133;DHT22;61320;52.008;4.530;2023-03-20T03:52:57;9.00;75.71
73133;DHT22;61320;52.008;4.530;2023-03-20T03:55:40;8.87;76.13
73133;DHT22;61320;52.008;4.530;2023-03-20T03:58:20;8.86;76.12
73133;DHT22;61320;52.008;4.530;2023-03-20T04:00:48;8.79;76.37
73133;DHT22;61320;52.008;4.530;2023-03-20T04:03:16;8.84;76.21
73133;DHT22;61320;52.008;4.530;2023-03-20T04:05:45;8.81;76.04
73133;DHT22;61320;52.008;4.530;2023-03-20T04:08:13;8.83;76.55
73133;DHT22;61320;52.008;4.530;2023-03-20T04:10:40;8.75;76.06
73133;DHT22;61320;52.008;4.530;2023-03-20T04:13:06;8.72;76.25
73133;DHT22;61320;52.008;4.530;2023-03-20T04:15:31;8.72;76.06
73133;DHT22;61320;52.008;4.530;2023-03-20T04:17:57;8.65;76.27
73133;DHT22;61320;52.008;4.530;2023-03-20T04:20:22;8.72;76.44
73133;DHT22;61320;52.008;4.530;2023-03-20T04:22:47;8.73;76.64
73133;DHT22;61320;52.008;4.530;2023-03-20T04:25:19;8.77;76.62
73133;DHT22;61320;52.008;4.530;2023-03-20T04:27:46;8.80;76.23
73133;DHT22;61320;52.008;4.530;2023-03-20T04:30:12;8.81;76.04
73133;DHT22;61320;52.008;4.530;2023-03-20T04:32:37;8.77;76.37
73133;DHT22;61320;52.008;4.530;2023-03-20T04:35:03;8.76;76.42
73133;DHT22;61320;52.008;4.530;2023-03-20T04:37:30;8.73;76.52
73133;DHT22;61320;52.008;4.530;2023-03-20T04:39:55;8.79;76.82
73133;DHT22;61320;52.008;4.530;2023-03-20T04:42:21;8.81;76.80
73133;DHT22;61320;52.008;4.530;2023-03-20T04:44:46;8.80;76.39
73133;DHT22;61320;52.008;4.530;2023-03-20T04:47:12;8.90;76.39
73133;DHT22;61320;52.008;4.530;2023-03-20T04:49:37;8.80;76.36
73133;DHT22;61320;52.008;4.530;2023-03-20T04:52:03;8.77;76.55
73133;DHT22;61320;52.008;4.530;2023-03-20T04:54:29;8.79;76.79
73133;DHT22;61320;52.008;4.530;2023-03-20T04:56:54;8.86;76.61
73133;DHT22;61320;52.008;4.530;2023-03-20T04:59:20;8.84;76.93
73133;DHT22;61320;52.008;4.530;2023-03-20T05:01:45;8.89;76.62
73133;DHT22;61320;52.008;4.530;2023-03-20T05:04:11;8.89;76.71
73133;DHT22;61320;52.008;4.530;2023-03-20T05:06:36;8.84;76.26
73133;DHT22;61320;52.008;4.530;2023-03-20T05:09:02;8.77;76.83
73133;DHT22;61320;52.008;4.530;2023-03-20T05:11:28;8.79;76.93
73133;DHT22;61320;52.008;4.530;2023-03-20T05:13:54;8.75;76.77
73133;DHT22;61320;52.008;4.530;2023-03-20T05:16:19;8.77;77.11
73133;DHT22;61320;52.008;4.530;2023-03-20T05:18:45;8.84;77.13
73133;DHT22;61320;52.008;4.530;2023-03-20T05:21:11;8.89;76.84
73133;DHT22;61320;52.008;4.530;2023-03-20T05:23:36;8.91;76.48
73133;DHT22;61320;52.008;4.530;2023-03-20T05:26:03;8.90;76.40
73133;DHT22;61320;52.008;4.530;2023-03-20T05:28:28;8.93;76.49
73133;DHT22;61320;52.008;4.530;2023-03-20T05:30:53;9.00;76.65
73133;DHT22;61320;52.008;4.530;2023-03-20T05:33:19;9.04;76.43
73133;DHT22;61320;52.008;4.530;2023-03-20T05:35:45;9.04;76.45
73133;DHT22;61320;52.008;4.530;2023-03-20T05:38:12;9.04;76.04
73133;DHT22;61320;52.008;4.530;2023-03-20T05:40:37;8.99;76.40
73133;DHT22;61320;52.008;4.530;2023-03-20T05:43:03;8.99;76.11
73133;DHT22;61320;52.008;4.530;2023-03-20T05:45:29;9.04;76.31
73133;DHT22;61320;52.008;4.530;2023-03-20T05:47:55;9.03;76.39
73133;DHT22;61320;52.008;4.530;2023-03-20T05:50:20;9.00;76.06
73133;DHT22;61320;52.008;4.530;2023-03-20T05:52:46;9.03;75.99
73133;DHT22;61320;52.008;4.530;2023-03-20T05:55:13;8.96;75.93
73133;DHT22;61320;52.008;4.530;2023-03-20T05:57:39;9.03;76.12
73133;DHT22;61320;52.008;4.530;2023-03-20T06:00:05;9.07;76.05
73133;DHT22;61320;52.008;4.530;2023-03-20T06:02:31;9.10;76.10
73133;DHT22;61320;52.008;4.530;2023-03-20T06:04:57;9.11;75.69
73133;DHT22;61320;52.008;4.530;2023-03-20T06:07:22;9.14;75.52
73133;DHT22;61320;52.008;4.530;2023-03-20T06:09:48;9.13;75.89
73133;DHT22;61320;52.008;4.530;2023-03-20T06:12:14;9.06;76.10
73133;DHT22;61320;52.008;4.530;2023-03-20T06:14:40;9.11;76.33
73133;DHT22;61320;52.008;4.530;2023-03-20T06:17:06;9.11;75.86
73133;DHT22;61320;52.008;4.530;2023-03-20T06:19:31;9.14;76.05
73133;DHT22;61320;52.008;4.530;2023-03-20T06:21:57;9.11;75.72
73133;DHT22;61320;52.008;4.530;2023-03-20T06:24:22;9.14;76.03
73133;DHT22;61320;52.008;4.530;2023-03-20T06:26:48;9.16;76.14
73133;DHT22;61320;52.008;4.530;2023-03-20T06:29:13;9.26;75.21
73133;DHT22;61320;52.008;4.530;2023-03-20T06:31:39;9.23;75.46
73133;DHT22;61320;52.008;4.530;2023-03-20T06:34:05;9.16;75.65
73133;DHT22;61320;52.008;4.530;2023-03-20T06:36:31;9.11;75.61
73133;DHT22;61320;52.008;4.530;2023-03-20T06:38:56;9.06;75.01
73133;DHT22;61320;52.008;4.530;2023-03-20T06:41:22;9.10;75.73
73133;DHT22;61320;52.008;4.530;2023-03-20T06:43:47;9.20;75.58
73133;DHT22;61320;52.008;4.530;2023-03-20T06:46:13;9.23;75.66
73133;DHT22;61320;52.008;4.530;2023-03-20T06:48:38;9.27;74.37
73133;DHT22;61320;52.008;4.530;2023-03-20T06:51:04;9.21;75.13
73133;DHT22;61320;52.008;4.530;2023-03-20T06:53:30;9.31;75.21
73133;DHT22;61320;52.008;4.530;2023-03-20T06:55:55;9.38;74.77
73133;DHT22;61320;52.008;4.530;2023-03-20T06:58:21;9.47;74.80
73133;DHT22;61320;52.008;4.530;2023-03-20T07:00:47;9.47;74.15
73133;DHT22;61320;52.008;4.530;2023-03-20T07:03:12;9.42;74.24
73133;DHT22;61320;52.008;4.530;2023-03-20T07:05:39;9.47;73.86
73133;DHT22;61320;52.008;4.530;2023-03-20T07:08:05;9.42;74.22
73133;DHT22;61320;52.008;4.530;2023-03-20T07:10:32;9.44;73.92
73133;DHT22;61320;52.008;4.530;2023-03-20T07:12:58;9.39;74.30
73133;DHT22;61320;52.008;4.530;2023-03-20T07:15:24;9.37;73.45
73133;DHT22;61320;52.008;4.530;2023-03-20T07:17:50;9.38;74.17
73133;DHT22;61320;52.008;4.530;2023-03-20T07:20:16;9.35;73.67
73133;DHT22;61320;52.008;4.530;2023-03-20T07:22:42;9.35;74.20
73133;DHT22;61320;52.008;4.530;2023-03-20T07:25:09;9.41;74.08
73133;DHT22;61320;52.008;4.530;2023-03-20T07:27:35;9.48;73.46
73133;DHT22;61320;52.008;4.530;2023-03-20T07:30:01;9.48;73.88
73133;DHT22;61320;52.008;4.530;2023-03-20T07:32:26;9.47;73.76
73133;DHT22;61320;52.008;4.530;2023-03-20T07:34:52;9.48;74.04
73133;DHT22;61320;52.008;4.530;2023-03-20T07:37:18;9.54;74.20
73133;DHT22;61320;52.008;4.530;2023-03-20T07:39:43;9.55;73.83
73133;DHT22;61320;52.008;4.530;2023-03-20T07:42:09;9.51;73.60
73133;DHT22;61320;52.008;4.530;2023-03-20T07:44:34;9.52;74.68
73133;DHT22;61320;52.008;4.530;2023-03-20T07:47:00;9.45;75.86
73133;DHT22;61320;52.008;4.530;2023-03-20T07:49:25;9.39;76.23
73133;DHT22;61320;52.008;4.530;2023-03-20T07:51:51;9.41;76.82
73133;DHT22;61320;52.008;4.530;2023-03-20T07:54:18;9.39;77.33
73133;DHT22;61320;52.008;4.530;2023-03-20T07:56:44;9.35;77.25
73133;DHT22;61320;52.008;4.530;2023-03-20T07:59:11;9.32;78.99
73133;DHT22;61320;52.008;4.530;2023-03-20T08:01:37;9.20;79.49
73133;DHT22;61320;52.008;4.530;2023-03-20T08:04:02;9.20;79.96
73133;DHT22;61320;52.008;4.530;2023-03-20T08:06:28;9.18;80.20
73133;DHT22;61320;52.008;4.530;2023-03-20T08:08:53;9.14;80.39
73133;DHT22;61320;52.008;4.530;2023-03-20T08:11:19;9.03;80.43
73133;DHT22;61320;52.008;4.530;2023-03-20T08:13:45;8.89;81.44
73133;DHT22;61320;52.008;4.530;2023-03-20T08:16:11;8.84;82.07
73133;DHT22;61320;52.008;4.530;2023-03-20T08:18:36;8.79;82.31
73133;DHT22;61320;52.008;4.530;2023-03-20T08:21:03;8.76;82.77
73133;DHT22;61320;52.008;4.530;2023-03-20T08:23:28;8.70;83.01
73133;DHT22;61320;52.008;4.530;2023-03-20T08:25:54;8.77;83.48
73133;DHT22;61320;52.008;4.530;2023-03-20T08:28:20;8.76;83.38
73133;DHT22;61320;52.008;4.530;2023-03-20T08:30:46;8.76;83.10
73133;DHT22;61320;52.008;4.530;2023-03-20T08:33:13;8.70;82.74
73133;DHT22;61320;52.008;4.530;2023-03-20T08:35:39;8.79;83.71
73133;DHT22;61320;52.008;4.530;2023-03-20T08:38:05;8.81;82.96
73133;DHT22;61320;52.008;4.530;2023-03-20T08:40:31;8.83;83.54
73133;DHT22;61320;52.008;4.530;2023-03-20T08:42:57;8.89;83.20
73133;DHT22;61320;52.008;4.530;2023-03-20T08:45:22;8.83;83.24
73133;DHT22;61320;52.008;4.530;2023-03-20T08:47:51;8.80;83.74
73133;DHT22;61320;52.008;4.530;2023-03-20T08:50:17;8.89;83.53
73133;DHT22;61320;52.008;4.530;2023-03-20T08:52:43;8.91;83.57
73133;DHT22;61320;52.008;4.530;2023-03-20T08:55:10;8.96;83.86
73133;DHT22;61320;52.008;4.530;2023-03-20T08:57:36;8.90;83.50
73133;DHT22;61320;52.008;4.530;2023-03-20T09:00:03;8.87;83.37
73133;DHT22;61320;52.008;4.530;2023-03-20T09:02:30;8.96;83.86
73133;DHT22;61320;52.008;4.530;2023-03-20T09:04:55;9.08;83.89
73133;DHT22;61320;52.008;4.530;2023-03-20T09:07:21;9.14;83.67
73133;DHT22;61320;52.008;4.530;2023-03-20T09:09:47;9.20;83.31
73133;DHT22;61320;52.008;4.530;2023-03-20T09:12:12;9.20;83.04
73133;DHT22;61320;52.008;4.530;2023-03-20T09:14:37;9.21;83.54
73133;DHT22;61320;52.008;4.530;2023-03-20T09:17:03;9.18;83.05
73133;DHT22;61320;52.008;4.530;2023-03-20T09:19:30;9.21;83.27
73133;DHT22;61320;52.008;4.530;2023-03-20T09:21:55;9.24;83.15
73133;DHT22;61320;52.008;4.530;2023-03-20T09:24:21;9.24;83.32
73133;DHT22;61320;52.008;4.530;2023-03-20T09:26:46;9.26;83.20
73133;DHT22;61320;52.008;4.530;2023-03-20T09:29:12;9.18;83.32
73133;DHT22;61320;52.008;4.530;2023-03-20T09:31:37;9.24;83.61
73133;DHT22;61320;52.008;4.530;2023-03-20T09:34:03;9.28;83.91
73133;DHT22;61320;52.008;4.530;2023-03-20T09:36:29;9.17;83.61
73133;DHT22;61320;52.008;4.530;2023-03-20T09:38:54;9.17;84.34
73133;DHT22;61320;52.008;4.530;2023-03-20T09:41:23;9.23;84.00
73133;DHT22;61320;52.008;4.530;2023-03-20T09:46:41;9.35;83.93
73133;DHT22;61320;52.008;4.530;2023-03-20T09:52:00;9.42;84.15
73133;DHT22;61320;52.008;4.530;2023-03-20T09:54:36;9.57;84.12
73133;DHT22;61320;52.008;4.530;2023-03-20T09:57:03;9.62;83.66
73133;DHT22;61320;52.008;4.530;2023-03-20T09:59:33;9.72;83.70
73133;DHT22;61320;52.008;4.530;2023-03-20T10:02:15;9.72;82.01
73133;DHT22;61320;52.008;4.530;2023-03-20T10:04:46;9.61;83.50
73133;DHT22;61320;52.008;4.530;2023-03-20T10:07:16;9.76;83.36
73133;DHT22;61320;52.008;4.530;2023-03-20T10:09:42;9.85;83.52
73133;DHT22;61320;52.008;4.530;2023-03-20T10:12:41;9.93;83.31
73133;DHT22;61320;52.008;4.530;2023-03-20T10:18:07;10.10;82.58
73133;DHT22;61320;52.008;4.530;2023-03-20T10:21:15;10.13;82.47
73133;DHT22;61320;52.008;4.530;2023-03-20T10:26:21;10.14;82.69
73133;DHT22;61320;52.008;4.530;2023-03-20T10:28:59;10.02;82.75
73133;DHT22;61320;52.008;4.530;2023-03-20T10:42:54;10.06;82.05
73133;DHT22;61320;52.008;4.530;2023-03-20T10:45:41;10.03;82.86
73133;DHT22;61320;52.008;4.530;2023-03-20T10:50:58;9.99;82.90
73133;DHT22;61320;52.008;4.530;2023-03-20T10:56:01;9.96;82.85
73133;DHT22;61320;52.008;4.530;2023-03-20T10:58:34;9.95;82.90
73133;DHT22;61320;52.008;4.530;2023-03-20T11:01:02;10.00;83.71
73133;DHT22;61320;52.008;4.530;2023-03-20T11:03:29;10.09;82.83
73133;DHT22;61320;52.008;4.530;2023-03-20T11:06:01;9.96;82.54
73133;DHT22;61320;52.008;4.530;2023-03-20T11:08:35;10.02;83.06
73133;DHT22;61320;52.008;4.530;2023-03-20T11:11:03;10.00;82.96
73133;DHT22;61320;52.008;4.530;2023-03-20T11:13:33;10.06;83.25
73133;DHT22;61320;52.008;4.530;2023-03-20T11:18:43;10.03;83.30
73133;DHT22;61320;52.008;4.530;2023-03-20T11:23:49;9.97;82.45
73133;DHT22;61320;52.008;4.530;2023-03-20T11:26:31;10.02;83.03
73133;DHT22;61320;52.008;4.530;2023-03-20T11:28:59;10.03;82.38
73133;DHT22;61320;52.008;4.530;2023-03-20T11:31:34;10.02;82.53
73133;DHT22;61320;52.008;4.530;2023-03-20T11:36:30;10.17;82.31
73133;DHT22;61320;52.008;4.530;2023-03-20T11:39:11;10.13;82.15
73133;DHT22;61320;52.008;4.530;2023-03-20T11:41:46;10.18;81.82
73133;DHT22;61320;52.008;4.530;2023-03-20T11:44:34;10.12;81.63
73133;DHT22;61320;52.008;4.530;2023-03-20T11:47:04;10.07;81.89
73133;DHT22;61320;52.008;4.530;2023-03-20T11:49:32;10.05;82.05
73133;DHT22;61320;52.008;4.530;2023-03-20T11:52:02;9.99;82.17
73133;DHT22;61320;52.008;4.530;2023-03-20T11:54:37;9.96;82.59
73133;DHT22;61320;52.008;4.530;2023-03-20T11:57:04;9.97;82.64
73133;DHT22;61320;52.008;4.530;2023-03-20T11:59:33;9.93;82.84
73133;DHT22;61320;52.008;4.530;2023-03-20T12:02:02;10.06;82.69
73133;DHT22;61320;52.008;4.530;2023-03-20T12:04:34;10.13;82.97
73133;DHT22;61320;52.008;4.530;2023-03-20T12:07:24;10.10;82.75
73133;DHT22;61320;52.008;4.530;2023-03-20T12:09:56;10.10;83.34
73133;DHT22;61320;52.008;4.530;2023-03-20T12:12:43;10.12;83.46
73133;DHT22;61320;52.008;4.530;2023-03-20T12:15:17;10.20;83.08
73133;DHT22;61320;52.008;4.530;2023-03-20T12:18:08;10.27;83.64
73133;DHT22;61320;52.008;4.530;2023-03-20T12:20:35;10.40;83.48
73133;DHT22;61320;52.008;4.530;2023-03-20T12:23:11;10.41;83.03
73133;DHT22;61320;52.008;4.530;2023-03-20T12:26:00;10.44;82.77
73133;DHT22;61320;52.008;4.530;2023-03-20T12:28:35;10.44;82.92
73133;DHT22;61320;52.008;4.530;2023-03-20T12:33:55;10.36;83.06
73133;DHT22;61320;52.008;4.530;2023-03-20T12:36:31;10.36;83.20
73133;DHT22;61320;52.008;4.530;2023-03-20T12:39:05;10.24;83.50
73133;DHT22;61320;52.008;4.530;2023-03-20T12:42:00;10.32;84.07
73133;DHT22;61320;52.008;4.530;2023-03-20T12:52:14;10.24;84.66
73133;DHT22;61320;52.008;4.530;2023-03-20T12:57:58;10.21;84.37
73133;DHT22;61320;52.008;4.530;2023-03-20T13:05:53;10.13;84.80
73133;DHT22;61320;52.008;4.530;2023-03-20T13:14:11;10.37;84.81
73133;DHT22;61320;52.008;4.530;2023-03-20T13:19:33;10.36;84.53
73133;DHT22;61320;52.008;4.530;2023-03-20T13:22:45;10.36;84.62
73133;DHT22;61320;52.008;4.530;2023-03-20T13:24:54;10.30;84.74
73133;DHT22;61320;52.008;4.530;2023-03-20T13:27:33;10.34;84.55
73133;DHT22;61320;52.008;4.530;2023-03-20T13:33:16;10.33;84.84
73133;DHT22;61320;52.008;4.530;2023-03-20T13:38:22;10.27;84.54
73133;DHT22;61320;52.008;4.530;2023-03-20T13:40:59;10.29;85.17
73133;DHT22;61320;52.008;4.530;2023-03-20T13:46:18;10.34;85.14
73133;DHT22;61320;52.008;4.530;2023-03-20T13:48:44;10.37;85.02
73133;DHT22;61320;52.008;4.530;2023-03-20T13:53:57;10.32;85.00
73133;DHT22;61320;52.008;4.530;2023-03-20T14:05:10;10.33;85.27
73133;DHT22;61320;52.008;4.530;2023-03-20T14:07:38;10.37;85.25
73133;DHT22;61320;52.008;4.530;2023-03-20T14:13:03;10.41;85.42
73133;DHT22;61320;52.008;4.530;2023-03-20T14:15:35;10.41;84.90
73133;DHT22;61320;52.008;4.530;2023-03-20T14:18:04;10.40;85.56
73133;DHT22;61320;52.008;4.530;2023-03-20T14:23:00;10.46;85.42
73133;DHT22;61320;52.008;4.530;2023-03-20T14:25:33;10.54;85.34
73133;DHT22;61320;52.008;4.530;2023-03-20T14:28:29;10.58;85.45
73133;DHT22;61320;52.008;4.530;2023-03-20T14:34:25;10.63;84.69
73133;DHT22;61320;52.008;4.530;2023-03-20T14:37:04;10.58;85.12
73133;DHT22;61320;52.008;4.530;2023-03-20T14:39:49;10.54;85.30
73133;DHT22;61320;52.008;4.530;2023-03-20T14:45:06;10.57;85.27
73133;DHT22;61320;52.008;4.530;2023-03-20T14:47:56;10.57;85.41
73133;DHT22;61320;52.008;4.530;2023-03-20T14:53:23;10.72;85.30
73133;DHT22;61320;52.008;4.530;2023-03-20T15:07:13;10.84;84.99
73133;DHT22;61320;52.008;4.530;2023-03-20T15:09:44;10.89;84.97
73133;DHT22;61320;52.008;4.530;2023-03-20T15:12:16;10.85;85.09
73133;DHT22;61320;52.008;4.530;2023-03-20T15:14:51;10.91;85.41
73133;DHT22;61320;52.008;4.530;2023-03-20T15:17:22;10.85;85.14
73133;DHT22;61320;52.008;4.530;2023-03-20T15:19:48;10.88;85.12
73133;DHT22;61320;52.008;4.530;2023-03-20T15:22:19;10.88;85.15
73133;DHT22;61320;52.008;4.530;2023-03-20T15:24:54;10.81;85.25
73133;DHT22;61320;52.008;4.530;2023-03-20T15:27:22;10.82;85.41
73133;DHT22;61320;52.008;4.530;2023-03-20T15:29:54;10.92;85.44
73133;DHT22;61320;52.008;4.530;2023-03-20T15:32:20;10.95;85.54
73133;DHT22;61320;52.008;4.530;2023-03-20T15:34:48;10.96;85.26
73133;DHT22;61320;52.008;4.530;2023-03-20T15:37:16;11.02;85.30
73133;DHT22;61320;52.008;4.530;2023-03-20T15:39:52;11.06;85.15
73133;DHT22;61320;52.008;4.530;2023-03-20T15:42:24;11.05;85.04
73133;DHT22;61320;52.008;4.530;2023-03-20T15:44:52;11.06;84.94
73133;DHT22;61320;52.008;4.530;2023-03-20T15:47:21;11.08;84.79
73133;DHT22;61320;52.008;4.530;2023-03-20T15:49:55;11.09;84.97
73133;DHT22;61320;52.008;4.530;2023-03-20T15:52:29;11.06;85.06
73133;DHT22;61320;52.008;4.530;2023-03-20T15:54:59;11.08;85.14
73133;DHT22;61320;52.008;4.530;2023-03-20T15:57:36;11.04;85.03
73133;DHT22;61320;52.008;4.530;2023-03-20T16:00:07;11.05;85.29
73133;DHT22;61320;52.008;4.530;2023-03-20T16:02:36;10.99;85.40
73133;DHT22;61320;52.008;4.530;2023-03-20T16:05:11;10.99;85.48
73133;DHT22;61320;52.008;4.530;2023-03-20T16:07:37;10.94;85.71
73133;DHT22;61320;52.008;4.530;2023-03-20T16:10:18;10.88;85.93
73133;DHT22;61320;52.008;4.530;2023-03-20T16:12:49;10.86;86.02
73133;DHT22;61320;52.008;4.530;2023-03-20T16:15:17;10.85;85.93
73133;DHT22;61320;52.008;4.530;2023-03-20T16:17:44;10.81;86.19
73133;DHT22;61320;52.008;4.530;2023-03-20T16:20:15;10.78;86.13
73133;DHT22;61320;52.008;4.530;2023-03-20T16:22:43;10.79;86.14
73133;DHT22;61320;52.008;4.530;2023-03-20T16:25:14;10.85;86.01
73133;DHT22;61320;52.008;4.530;2023-03-20T16:27:40;10.94;86.00
73133;DHT22;61320;52.008;4.530;2023-03-20T16:30:20;10.88;85.59
73133;DHT22;61320;52.008;4.530;2023-03-20T16:33:04;10.88;85.75
73133;DHT22;61320;52.008;4.530;2023-03-20T16:35:41;10.84;85.92
73133;DHT22;61320;52.008;4.530;2023-03-20T16:38:26;10.86;85.78
73133;DHT22;61320;52.008;4.530;2023-03-20T16:40:55;10.82;85.81
73133;DHT22;61320;52.008;4.530;2023-03-20T16:43:28;10.79;85.87
73133;DHT22;61320;52.008;4.530;2023-03-20T16:45:57;10.85;85.83
73133;DHT22;61320;52.008;4.530;2023-03-20T16:48:32;10.82;85.88
73133;DHT22;61320;52.008;4.530;2023-03-20T16:51:01;10.86;85.67
73133;DHT22;61320;52.008;4.530;2023-03-20T16:53:37;10.82;85.72
73133;DHT22;61320;52.008;4.530;2023-03-20T16:56:11;10.77;86.04
73133;DHT22;61320;52.008;4.530;2023-03-20T16:58:37;10.84;85.94
73133;DHT22;61320;52.008;4.530;2023-03-20T17:01:14;10.82;85.79
73133;DHT22;61320;52.008;4.530;2023-03-20T17:03:57;10.85;85.70
73133;DHT22;61320;52.008;4.530;2023-03-20T17:06:46;10.85;85.76
73133;DHT22;61320;52.008;4.530;2023-03-20T17:11:45;10.92;85.51
73133;DHT22;61320;52.008;4.530;2023-03-20T17:14:12;10.92;85.49
73133;DHT22;61320;52.008;4.530;2023-03-20T17:16:37;10.89;85.49
73133;DHT22;61320;52.008;4.530;2023-03-20T17:19:09;10.91;85.48
73133;DHT22;61320;52.008;4.530;2023-03-20T17:21:37;10.99;85.56
73133;DHT22;61320;52.008;4.530;2023-03-20T17:24:03;10.96;85.26
73133;DHT22;61320;52.008;4.530;2023-03-20T17:26:28;10.86;85.22
73133;DHT22;61320;52.008;4.530;2023-03-20T17:28:55;10.86;85.76
73133;DHT22;61320;52.008;4.530;2023-03-20T17:31:20;10.88;85.76
73133;DHT22;61320;52.008;4.530;2023-03-20T17:33:46;10.92;85.86
73133;DHT22;61320;52.008;4.530;2023-03-20T17:36:24;11.04;85.39
73133;DHT22;61320;52.008;4.530;2023-03-20T17:38:53;10.96;85.61
73133;DHT22;61320;52.008;4.530;2023-03-20T17:41:19;11.02;85.48
73133;DHT22;61320;52.008;4.530;2023-03-20T17:43:46;11.02;85.14
73133;DHT22;61320;52.008;4.530;2023-03-20T17:46:20;10.99;85.49
73133;DHT22;61320;52.008;4.530;2023-03-20T17:48:47;11.05;85.44
73133;DHT22;61320;52.008;4.530;2023-03-20T17:51:12;11.01;85.18
73133;DHT22;61320;52.008;4.530;2023-03-20T17:53:38;10.95;85.40
73133;DHT22;61320;52.008;4.530;2023-03-20T17:56:12;11.04;85.82
73133;DHT22;61320;52.008;4.530;2023-03-20T17:58:39;11.04;85.30
73133;DHT22;61320;52.008;4.530;2023-03-20T18:01:06;10.95;85.47
73133;DHT22;61320;52.008;4.530;2023-03-20T18:03:34;10.96;85.74
73133;DHT22;61320;52.008;4.530;2023-03-20T18:06:00;10.96;85.67
73133;DHT22;61320;52.008;4.530;2023-03-20T18:08:26;11.02;85.30
73133;DHT22;61320;52.008;4.530;2023-03-20T18:10:52;10.99;85.53
73133;DHT22;61320;52.008;4.530;2023-03-20T18:13:19;10.95;85.51
73133;DHT22;61320;52.008;4.530;2023-03-20T18:15:46;10.96;85.62
73133;DHT22;61320;52.008;4.530;2023-03-20T18:18:14;10.95;85.56
73133;DHT22;61320;52.008;4.530;2023-03-20T18:20:39;11.01;85.64
73133;DHT22;61320;52.008;4.530;2023-03-20T18:23:08;11.02;85.64
73133;DHT22;61320;52.008;4.530;2023-03-20T18:25:34;10.96;85.48
73133;DHT22;61320;52.008;4.530;2023-03-20T18:28:02;10.98;85.51
73133;DHT22;61320;52.008;4.530;2023-03-20T18:30:33;10.95;85.77
73133;DHT22;61320;52.008;4.530;2023-03-20T18:32:59;10.99;85.48
73133;DHT22;61320;52.008;4.530;2023-03-20T18:35:25;10.94;85.50
73133;DHT22;61320;52.008;4.530;2023-03-20T18:37:50;10.98;85.81
73133;DHT22;61320;52.008;4.530;2023-03-20T18:40:26;11.02;85.35
73133;DHT22;61320;52.008;4.530;2023-03-20T18:42:53;10.94;85.48